sensor_id;sensor_type;location;lat;lon;timestamp;P1;durP1;ratioP1;P2;durP2;ratioP2
1320;SDS011;653;51.480;11.992;2023-04-04T00:02:15;1.90;;;1.70;;
1320;SDS011;653;51.480;11.992;2023-04-04T00:04:42;4.30;;;2.30;;
1320;SDS011;653;51.480;11.992;2023-04-04T00:07:08;6.07;;;2.30;;
1320;SDS011;653;51.480;11.992;2023-04-04T00:09:35;7.83;;;2.67;;
1320;SDS011;653;51.480;11.992;2023-04-04T00:12:02;3.93;;;2.43;;
1320;SDS011;653;51.480;11.992;2023-04-04T00:14:28;2.03;;;1.80;;
1320;SDS011;653;51.480;11.992;2023-04-04T00:16:55;2.43;;;1.63;;
1320;SDS011;653;51.480;11.992;2023-04-04T00:19:22;2.93;;;1.83;;
1320;SDS011;653;51.480;11.992;2023-04-04T00:21:50;6.50;;;1.93;;
1320;SDS011;653;51.480;11.992;2023-04-04T00:24:16;2.70;;;2.00;;
1320;SDS011;653;51.480;11.992;2023-04-04T00:26:43;4.13;;;2.00;;
1320;SDS011;653;51.480;11.992;2023-04-04T00:29:10;5.07;;;2.27;;
1320;SDS011;653;51.480;11.992;2023-04-04T00:31:36;4.87;;;2.40;;
1320;SDS011;653;51.480;11.992;2023-04-04T00:34:04;10.40;;;2.03;;
1320;SDS011;653;51.480;11.992;2023-04-04T00:36:30;2.67;;;2.00;;
1320;SDS011;653;51.480;11.992;2023-04-04T00:38:56;3.07;;;1.63;;
1320;SDS011;653;51.480;11.992;2023-04-04T00:41:23;4.37;;;2.10;;
1320;SDS011;653;51.480;11.992;2023-04-04T00:43:48;4.30;;;1.83;;
1320;SDS011;653;51.480;11.992;2023-04-04T00:46:15;3.87;;;1.80;;
1320;SDS011;653;51.480;11.992;2023-04-04T00:48:44;3.00;;;1.93;;
1320;SDS011;653;51.480;11.992;2023-04-04T00:51:11;2.90;;;2.23;;
1320;SDS011;653;51.480;11.992;2023-04-04T00:53:38;2.43;;;2.23;;
1320;SDS011;653;51.480;11.992;2023-04-04T00:56:07;4.73;;;2.20;;
1320;SDS011;653;51.480;11.992;2023-04-04T00:58:33;3.83;;;1.70;;
1320;SDS011;653;51.480;11.992;2023-04-04T01:01:00;5.03;;;2.13;;
1320;SDS011;653;51.480;11.992;2023-04-04T01:03:27;7.63;;;2.23;;
1320;SDS011;653;51.480;11.992;2023-04-04T01:05:55;7.27;;;2.00;;
1320;SDS011;653;51.480;11.992;2023-04-04T01:08:20;4.30;;;2.53;;
1320;SDS011;653;51.480;11.992;2023-04-04T01:10:50;7.43;;;2.37;;
1320;SDS011;653;51.480;11.992;2023-04-04T01:13:16;4.23;;;2.33;;
1320;SDS011;653;51.480;11.992;2023-04-04T01:15:44;6.40;;;2.13;;
1320;SDS011;653;51.480;11.992;2023-04-04T01:18:12;7.40;;;2.10;;
1320;SDS011;653;51.480;11.992;2023-04-04T01:20:42;4.77;;;2.07;;
1320;SDS011;653;51.480;11.992;2023-04-04T01:23:12;5.80;;;1.90;;
1320;SDS011;653;51.480;11.992;2023-04-04T01:25:40;7.40;;;3.10;;
1320;SDS011;653;51.480;11.992;2023-04-04T01:28:06;3.60;;;2.10;;
1320;SDS011;653;51.480;11.992;2023-04-04T01:30:32;3.60;;;2.07;;
1320;SDS011;653;51.480;11.992;2023-04-04T01:33:07;3.83;;;1.90;;
1320;SDS011;653;51.480;11.992;2023-04-04T01:41:06;3.13;;;1.70;;
1320;SDS011;653;51.480;11.992;2023-04-04T01:43:34;4.70;;;2.23;;
1320;SDS011;653;51.480;11.992;2023-04-04T01:46:01;3.90;;;2.20;;
1320;SDS011;653;51.480;11.992;2023-04-04T01:48:28;3.43;;;2.60;;
1320;SDS011;653;51.480;11.992;2023-04-04T01:50:55;6.03;;;2.43;;
1320;SDS011;653;51.480;11.992;2023-04-04T01:53:22;2.97;;;1.90;;
1320;SDS011;653;51.480;11.992;2023-04-04T01:55:47;6.90;;;2.60;;
1320;SDS011;653;51.480;11.992;2023-04-04T01:58:14;4.67;;;2.57;;
1320;SDS011;653;51.480;11.992;2023-04-04T02:00:41;6.63;;;2.10;;
1320;SDS011;653;51.480;11.992;2023-04-04T02:03:08;4.40;;;2.30;;
1320;SDS011;653;51.480;11.992;2023-04-04T02:05:35;5.17;;;2.40;;
1320;SDS011;653;51.480;11.992;2023-04-04T02:08:01;4.07;;;1.83;;
1320;SDS011;653;51.480;11.992;2023-04-04T02:10:30;7.53;;;3.27;;
1320;SDS011;653;51.480;11.992;2023-04-04T02:12:55;3.20;;;2.33;;
1320;SDS011;653;51.480;11.992;2023-04-04T02:15:22;6.00;;;2.60;;
1320;SDS011;653;51.480;11.992;2023-04-04T02:17:49;6.10;;;2.40;;
1320;SDS011;653;51.480;11.992;2023-04-04T02:20:16;4.70;;;3.60;;
1320;SDS011;653;51.480;11.992;2023-04-04T02:22:52;4.20;;;2.60;;
1320;SDS011;653;51.480;11.992;2023-04-04T02:25:20;3.20;;;2.43;;
1320;SDS011;653;51.480;11.992;2023-04-04T02:27:48;3.80;;;1.80;;
1320;SDS011;653;51.480;11.992;2023-04-04T02:30:15;7.30;;;2.73;;
1320;SDS011;653;51.480;11.992;2023-04-04T02:32:42;6.07;;;2.73;;
1320;SDS011;653;51.480;11.992;2023-04-04T02:35:08;7.23;;;3.00;;
1320;SDS011;653;51.480;11.992;2023-04-04T02:37:35;7.10;;;2.90;;
1320;SDS011;653;51.480;11.992;2023-04-04T02:40:02;4.17;;;2.10;;
1320;SDS011;653;51.480;11.992;2023-04-04T02:42:29;3.90;;;2.80;;
1320;SDS011;653;51.480;11.992;2023-04-04T02:44:56;3.50;;;2.67;;
1320;SDS011;653;51.480;11.992;2023-04-04T02:47:23;6.43;;;2.10;;
1320;SDS011;653;51.480;11.992;2023-04-04T02:49:49;4.13;;;2.33;;
1320;SDS011;653;51.480;11.992;2023-04-04T02:52:17;5.40;;;3.13;;
1320;SDS011;653;51.480;11.992;2023-04-04T02:54:46;3.23;;;2.47;;
1320;SDS011;653;51.480;11.992;2023-04-04T02:57:15;6.90;;;3.00;;
1320;SDS011;653;51.480;11.992;2023-04-04T02:59:42;4.17;;;2.17;;
1320;SDS011;653;51.480;11.992;2023-04-04T03:02:09;5.00;;;2.20;;
1320;SDS011;653;51.480;11.992;2023-04-04T03:04:34;3.47;;;2.53;;
1320;SDS011;653;51.480;11.992;2023-04-04T03:07:02;3.87;;;2.50;;
1320;SDS011;653;51.480;11.992;2023-04-04T03:09:27;7.70;;;3.03;;
1320;SDS011;653;51.480;11.992;2023-04-04T03:11:54;4.57;;;2.40;;
1320;SDS011;653;51.480;11.992;2023-04-04T03:14:21;7.30;;;2.50;;
1320;SDS011;653;51.480;11.992;2023-04-04T03:16:48;6.70;;;2.70;;
1320;SDS011;653;51.480;11.992;2023-04-04T03:19:14;5.37;;;2.90;;
1320;SDS011;653;51.480;11.992;2023-04-04T03:21:42;6.07;;;2.77;;
1320;SDS011;653;51.480;11.992;2023-04-04T03:24:08;4.37;;;2.10;;
1320;SDS011;653;51.480;11.992;2023-04-04T03:26:34;5.43;;;3.00;;
1320;SDS011;653;51.480;11.992;2023-04-04T03:29:00;4.53;;;2.60;;
1320;SDS011;653;51.480;11.992;2023-04-04T03:31:29;4.20;;;2.53;;
1320;SDS011;653;51.480;11.992;2023-04-04T03:33:56;4.07;;;2.67;;
1320;SDS011;653;51.480;11.992;2023-04-04T03:36:26;3.03;;;1.97;;
1320;SDS011;653;51.480;11.992;2023-04-04T03:38:53;5.53;;;2.20;;
1320;SDS011;653;51.480;11.992;2023-04-04T03:41:20;2.93;;;2.23;;
1320;SDS011;653;51.480;11.992;2023-04-04T03:43:46;4.33;;;2.20;;
1320;SDS011;653;51.480;11.992;2023-04-04T03:46:14;4.37;;;2.10;;
1320;SDS011;653;51.480;11.992;2023-04-04T03:48:39;5.80;;;2.60;;
1320;SDS011;653;51.480;11.992;2023-04-04T03:51:05;9.27;;;3.20;;
1320;SDS011;653;51.480;11.992;2023-04-04T03:53:31;5.63;;;2.70;;
1320;SDS011;653;51.480;11.992;2023-04-04T03:55:58;5.10;;;2.80;;
1320;SDS011;653;51.480;11.992;2023-04-04T03:58:25;4.17;;;2.20;;
1320;SDS011;653;51.480;11.992;2023-04-04T04:00:54;6.80;;;2.47;;
1320;SDS011;653;51.480;11.992;2023-04-04T04:03:21;6.77;;;2.63;;
1320;SDS011;653;51.480;11.992;2023-04-04T04:05:48;7.93;;;2.90;;
1320;SDS011;653;51.480;11.992;2023-04-04T04:08:14;4.50;;;2.50;;
1320;SDS011;653;51.480;11.992;2023-04-04T04:10:42;7.67;;;2.77;;
1320;SDS011;653;51.480;11.992;2023-04-04T04:13:09;7.53;;;2.70;;
1320;SDS011;653;51.480;11.992;2023-04-04T04:15:34;4.93;;;2.60;;
1320;SDS011;653;51.480;11.992;2023-04-04T04:17:59;7.33;;;3.20;;
1320;SDS011;653;51.480;11.992;2023-04-04T04:20:26;3.57;;;2.40;;
1320;SDS011;653;51.480;11.992;2023-04-04T04:22:53;5.50;;;2.30;;
1320;SDS011;653;51.480;11.992;2023-04-04T04:25:20;5.50;;;2.60;;
1320;SDS011;653;51.480;11.992;2023-04-04T04:27:46;5.00;;;3.30;;
1320;SDS011;653;51.480;11.992;2023-04-04T04:30:12;4.50;;;2.83;;
1320;SDS011;653;51.480;11.992;2023-04-04T04:32:38;7.17;;;2.70;;
1320;SDS011;653;51.480;11.992;2023-04-04T04:35:04;5.70;;;2.80;;
1320;SDS011;653;51.480;11.992;2023-04-04T04:37:31;6.17;;;2.47;;
1320;SDS011;653;51.480;11.992;2023-04-04T04:39:57;4.60;;;2.83;;
1320;SDS011;653;51.480;11.992;2023-04-04T04:42:25;4.20;;;2.93;;
1320;SDS011;653;51.480;11.992;2023-04-04T04:44:52;6.70;;;2.53;;
1320;SDS011;653;51.480;11.992;2023-04-04T04:47:19;5.50;;;2.53;;
1320;SDS011;653;51.480;11.992;2023-04-04T04:49:45;7.07;;;2.83;;
1320;SDS011;653;51.480;11.992;2023-04-04T04:52:15;3.77;;;2.87;;
1320;SDS011;653;51.480;11.992;2023-04-04T04:54:42;5.30;;;2.40;;
1320;SDS011;653;51.480;11.992;2023-04-04T04:57:11;8.57;;;2.77;;
1320;SDS011;653;51.480;11.992;2023-04-04T04:59:36;3.77;;;2.30;;
1320;SDS011;653;51.480;11.992;2023-04-04T05:02:03;6.30;;;2.47;;
1320;SDS011;653;51.480;11.992;2023-04-04T05:04:29;4.63;;;3.00;;
1320;SDS011;653;51.480;11.992;2023-04-04T05:06:56;5.63;;;3.20;;
1320;SDS011;653;51.480;11.992;2023-04-04T05:09:23;4.20;;;3.10;;
1320;SDS011;653;51.480;11.992;2023-04-04T05:11:49;5.20;;;2.40;;
1320;SDS011;653;51.480;11.992;2023-04-04T05:14:19;9.23;;;3.27;;
1320;SDS011;653;51.480;11.992;2023-04-04T05:16:46;7.27;;;3.67;;
1320;SDS011;653;51.480;11.992;2023-04-04T05:19:12;10.50;;;4.60;;
1320;SDS011;653;51.480;11.992;2023-04-04T05:21:39;9.00;;;3.87;;
1320;SDS011;653;51.480;11.992;2023-04-04T05:24:06;7.23;;;3.13;;
1320;SDS011;653;51.480;11.992;2023-04-04T05:26:32;6.47;;;3.13;;
1320;SDS011;653;51.480;11.992;2023-04-04T05:28:59;7.07;;;3.53;;
1320;SDS011;653;51.480;11.992;2023-04-04T05:31:27;5.50;;;3.40;;
1320;SDS011;653;51.480;11.992;2023-04-04T05:33:54;5.37;;;2.60;;
1320;SDS011;653;51.480;11.992;2023-04-04T05:36:21;4.97;;;2.80;;
1320;SDS011;653;51.480;11.992;2023-04-04T05:38:47;6.47;;;3.50;;
1320;SDS011;653;51.480;11.992;2023-04-04T05:41:13;8.50;;;3.17;;
1320;SDS011;653;51.480;11.992;2023-04-04T05:43:41;5.17;;;2.83;;
1320;SDS011;653;51.480;11.992;2023-04-04T05:46:08;6.23;;;3.30;;
1320;SDS011;653;51.480;11.992;2023-04-04T05:48:33;7.27;;;3.20;;
1320;SDS011;653;51.480;11.992;2023-04-04T05:51:00;5.33;;;3.23;;
1320;SDS011;653;51.480;11.992;2023-04-04T05:53:25;7.53;;;3.10;;
1320;SDS011;653;51.480;11.992;2023-04-04T05:55:52;7.33;;;3.70;;
1320;SDS011;653;51.480;11.992;2023-04-04T05:58:19;5.60;;;2.87;;
1320;SDS011;653;51.480;11.992;2023-04-04T06:00:45;8.53;;;4.30;;
1320;SDS011;653;51.480;11.992;2023-04-04T06:03:12;7.73;;;3.33;;
1320;SDS011;653;51.480;11.992;2023-04-04T06:05:41;6.70;;;3.60;;
1320;SDS011;653;51.480;11.992;2023-04-04T06:08:08;5.50;;;2.73;;
1320;SDS011;653;51.480;11.992;2023-04-04T06:10:33;5.80;;;2.80;;
1320;SDS011;653;51.480;11.992;2023-04-04T06:12:59;8.43;;;2.90;;
1320;SDS011;653;51.480;11.992;2023-04-04T06:15:25;7.27;;;3.47;;
1320;SDS011;653;51.480;11.992;2023-04-04T06:17:52;5.40;;;2.83;;
1320;SDS011;653;51.480;11.992;2023-04-04T06:20:19;4.77;;;2.87;;
1320;SDS011;653;51.480;11.992;2023-04-04T06:22:48;7.80;;;3.40;;
1320;SDS011;653;51.480;11.992;2023-04-04T06:25:15;7.07;;;3.60;;
1320;SDS011;653;51.480;11.992;2023-04-04T06:27:42;5.93;;;4.03;;
1320;SDS011;653;51.480;11.992;2023-04-04T06:30:09;7.70;;;3.70;;
1320;SDS011;653;51.480;11.992;2023-04-04T06:32:35;3.60;;;2.40;;
1320;SDS011;653;51.480;11.992;2023-04-04T06:35:01;7.70;;;3.00;;
1320;SDS011;653;51.480;11.992;2023-04-04T06:37:30;6.50;;;3.60;;
1320;SDS011;653;51.480;11.992;2023-04-04T06:39:57;9.17;;;3.97;;
1320;SDS011;653;51.480;11.992;2023-04-04T06:42:23;5.77;;;3.20;;
1320;SDS011;653;51.480;11.992;2023-04-04T06:44:49;11.20;;;3.27;;
1320;SDS011;653;51.480;11.992;2023-04-04T06:47:15;5.13;;;2.73;;
1320;SDS011;653;51.480;11.992;2023-04-04T06:49:42;5.77;;;2.60;;
1320;SDS011;653;51.480;11.992;2023-04-04T06:52:09;6.43;;;3.33;;
1320;SDS011;653;51.480;11.992;2023-04-04T06:54:35;6.63;;;2.93;;
1320;SDS011;653;51.480;11.992;2023-04-04T06:57:02;7.03;;;3.30;;
1320;SDS011;653;51.480;11.992;2023-04-04T06:59:27;6.37;;;2.90;;
1320;SDS011;653;51.480;11.992;2023-04-04T07:01:53;10.03;;;3.90;;
1320;SDS011;653;51.480;11.992;2023-04-04T07:04:20;6.23;;;3.20;;
1320;SDS011;653;51.480;11.992;2023-04-04T07:06:46;4.00;;;2.43;;
1320;SDS011;653;51.480;11.992;2023-04-04T07:09:13;4.20;;;2.40;;
1320;SDS011;653;51.480;11.992;2023-04-04T07:11:38;6.50;;;3.00;;
1320;SDS011;653;51.480;11.992;2023-04-04T07:14:05;6.33;;;3.17;;
1320;SDS011;653;51.480;11.992;2023-04-04T07:16:32;7.20;;;3.17;;
1320;SDS011;653;51.480;11.992;2023-04-04T07:18:57;8.10;;;2.73;;
1320;SDS011;653;51.480;11.992;2023-04-04T07:21:24;3.47;;;2.50;;
1320;SDS011;653;51.480;11.992;2023-04-04T07:23:50;4.10;;;2.67;;
1320;SDS011;653;51.480;11.992;2023-04-04T07:26:17;7.97;;;3.40;;
1320;SDS011;653;51.480;11.992;2023-04-04T07:28:44;7.27;;;3.60;;
1320;SDS011;653;51.480;11.992;2023-04-04T07:31:11;4.67;;;3.30;;
1320;SDS011;653;51.480;11.992;2023-04-04T07:33:39;5.23;;;2.90;;
1320;SDS011;653;51.480;11.992;2023-04-04T07:36:04;8.13;;;3.10;;
1320;SDS011;653;51.480;11.992;2023-04-04T07:38:30;6.30;;;2.80;;
1320;SDS011;653;51.480;11.992;2023-04-04T07:40:58;4.50;;;3.40;;
1320;SDS011;653;51.480;11.992;2023-04-04T07:43:24;3.63;;;2.70;;
1320;SDS011;653;51.480;11.992;2023-04-04T07:45:53;7.93;;;3.10;;
1320;SDS011;653;51.480;11.992;2023-04-04T07:48:20;5.43;;;4.43;;
1320;SDS011;653;51.480;11.992;2023-04-04T07:50:47;7.80;;;2.60;;
1320;SDS011;653;51.480;11.992;2023-04-04T07:53:14;7.80;;;3.53;;
1320;SDS011;653;51.480;11.992;2023-04-04T07:55:40;3.53;;;3.23;;
1320;SDS011;653;51.480;11.992;2023-04-04T07:58:07;7.00;;;3.03;;
1320;SDS011;653;51.480;11.992;2023-04-04T08:00:32;4.50;;;2.70;;
1320;SDS011;653;51.480;11.992;2023-04-04T08:02:59;11.57;;;3.27;;
1320;SDS011;653;51.480;11.992;2023-04-04T08:05:28;3.97;;;3.60;;
1320;SDS011;653;51.480;11.992;2023-04-04T08:07:55;7.30;;;3.00;;
1320;SDS011;653;51.480;11.992;2023-04-04T08:10:21;5.13;;;2.93;;
1320;SDS011;653;51.480;11.992;2023-04-04T08:12:48;6.13;;;3.13;;
1320;SDS011;653;51.480;11.992;2023-04-04T08:15:14;6.00;;;3.00;;
1320;SDS011;653;51.480;11.992;2023-04-04T08:17:42;6.97;;;4.90;;
1320;SDS011;653;51.480;11.992;2023-04-04T08:20:09;5.67;;;3.20;;
1320;SDS011;653;51.480;11.992;2023-04-04T08:22:35;8.63;;;3.47;;
1320;SDS011;653;51.480;11.992;2023-04-04T08:25:02;6.10;;;3.30;;
1320;SDS011;653;51.480;11.992;2023-04-04T08:27:29;4.90;;;3.00;;
1320;SDS011;653;51.480;11.992;2023-04-04T08:29:56;4.60;;;3.57;;
1320;SDS011;653;51.480;11.992;2023-04-04T08:32:23;6.60;;;3.00;;
1320;SDS011;653;51.480;11.992;2023-04-04T08:34:50;3.47;;;2.50;;
1320;SDS011;653;51.480;11.992;2023-04-04T08:37:17;3.60;;;2.90;;
1320;SDS011;653;51.480;11.992;2023-04-04T08:39:43;3.37;;;3.00;;
1320;SDS011;653;51.480;11.992;2023-04-04T08:42:09;5.40;;;2.87;;
1320;SDS011;653;51.480;11.992;2023-04-04T08:44:38;4.43;;;2.93;;
1320;SDS011;653;51.480;11.992;2023-04-04T08:47:07;6.20;;;4.27;;
1320;SDS011;653;51.480;11.992;2023-04-04T08:49:35;7.50;;;3.60;;
1320;SDS011;653;51.480;11.992;2023-04-04T08:52:05;5.23;;;2.80;;
1320;SDS011;653;51.480;11.992;2023-04-04T08:54:33;7.03;;;4.23;;
1320;SDS011;653;51.480;11.992;2023-04-04T08:57:00;4.03;;;2.83;;
1320;SDS011;653;51.480;11.992;2023-04-04T08:59:27;3.80;;;2.93;;
1320;SDS011;653;51.480;11.992;2023-04-04T09:01:59;2.90;;;2.57;;
1320;SDS011;653;51.480;11.992;2023-04-04T09:04:30;2.83;;;2.53;;
1320;SDS011;653;51.480;11.992;2023-04-04T09:06:58;4.47;;;3.33;;
1320;SDS011;653;51.480;11.992;2023-04-04T09:09:26;4.67;;;3.80;;
1320;SDS011;653;51.480;11.992;2023-04-04T09:11:54;6.30;;;4.10;;
1320;SDS011;653;51.480;11.992;2023-04-04T09:14:21;6.40;;;3.37;;
1320;SDS011;653;51.480;11.992;2023-04-04T09:16:47;9.23;;;4.50;;
1320;SDS011;653;51.480;11.992;2023-04-04T09:19:14;3.30;;;3.00;;
1320;SDS011;653;51.480;11.992;2023-04-04T09:21:44;4.70;;;4.27;;
1320;SDS011;653;51.480;11.992;2023-04-04T09:24:13;5.17;;;3.70;;
1320;SDS011;653;51.480;11.992;2023-04-04T09:26:48;4.20;;;3.80;;
1320;SDS011;653;51.480;11.992;2023-04-04T09:29:20;7.30;;;4.37;;
1320;SDS011;653;51.480;11.992;2023-04-04T09:31:48;3.90;;;3.50;;
1320;SDS011;653;51.480;11.992;2023-04-04T09:34:15;7.23;;;3.47;;
1320;SDS011;653;51.480;11.992;2023-04-04T09:36:43;6.30;;;3.43;;
1320;SDS011;653;51.480;11.992;2023-04-04T09:39:11;5.73;;;3.10;;
1320;SDS011;653;51.480;11.992;2023-04-04T09:41:43;3.17;;;2.73;;
1320;SDS011;653;51.480;11.992;2023-04-04T09:44:10;5.50;;;2.67;;
1320;SDS011;653;51.480;11.992;2023-04-04T09:46:38;4.23;;;2.63;;
1320;SDS011;653;51.480;11.992;2023-04-04T09:49:08;5.10;;;2.63;;
1320;SDS011;653;51.480;11.992;2023-04-04T09:51:39;6.07;;;2.60;;
1320;SDS011;653;51.480;11.992;2023-04-04T09:54:10;6.77;;;3.43;;
1320;SDS011;653;51.480;11.992;2023-04-04T09:56:36;5.80;;;2.50;;
1320;SDS011;653;51.480;11.992;2023-04-04T09:59:08;4.10;;;2.50;;
1320;SDS011;653;51.480;11.992;2023-04-04T10:01:34;3.63;;;2.70;;
1320;SDS011;653;51.480;11.992;2023-04-04T10:04:02;8.10;;;3.10;;
1320;SDS011;653;51.480;11.992;2023-04-04T10:06:28;3.37;;;3.07;;
1320;SDS011;653;51.480;11.992;2023-04-04T10:08:55;5.03;;;3.17;;
1320;SDS011;653;51.480;11.992;2023-04-04T10:11:31;5.90;;;3.77;;
1320;SDS011;653;51.480;11.992;2023-04-04T10:13:59;4.67;;;4.10;;
1320;SDS011;653;51.480;11.992;2023-04-04T10:16:30;3.07;;;2.70;;
1320;SDS011;653;51.480;11.992;2023-04-04T10:18:56;6.67;;;2.87;;
1320;SDS011;653;51.480;11.992;2023-04-04T10:21:23;4.10;;;2.63;;
1320;SDS011;653;51.480;11.992;2023-04-04T10:23:51;4.57;;;3.27;;
1320;SDS011;653;51.480;11.992;2023-04-04T10:26:18;3.30;;;2.63;;
1320;SDS011;653;51.480;11.992;2023-04-04T10:28:46;4.07;;;2.93;;
1320;SDS011;653;51.480;11.992;2023-04-04T10:31:23;3.57;;;2.40;;
1320;SDS011;653;51.480;11.992;2023-04-04T10:36:53;4.10;;;3.03;;
1320;SDS011;653;51.480;11.992;2023-04-04T10:39:48;4.37;;;2.97;;
1320;SDS011;653;51.480;11.992;2023-04-04T10:42:41;4.27;;;3.00;;
1320;SDS011;653;51.480;11.992;2023-04-04T10:45:15;3.47;;;3.07;;
1320;SDS011;653;51.480;11.992;2023-04-04T10:47:43;3.90;;;3.00;;
1320;SDS011;653;51.480;11.992;2023-04-04T10:50:10;3.93;;;3.10;;
1320;SDS011;653;51.480;11.992;2023-04-04T10:52:38;3.40;;;3.00;;
1320;SDS011;653;51.480;11.992;2023-04-04T10:55:05;4.07;;;2.80;;
1320;SDS011;653;51.480;11.992;2023-04-04T10:57:41;3.60;;;3.33;;
1320;SDS011;653;51.480;11.992;2023-04-04T11:00:13;3.53;;;2.87;;
1320;SDS011;653;51.480;11.992;2023-04-04T11:08:23;2.80;;;2.60;;
1320;SDS011;653;51.480;11.992;2023-04-04T11:10:54;3.27;;;2.50;;
1320;SDS011;653;51.480;11.992;2023-04-04T11:13:31;2.97;;;2.77;;
1320;SDS011;653;51.480;11.992;2023-04-04T11:16:12;3.37;;;3.00;;
1320;SDS011;653;51.480;11.992;2023-04-04T11:21:19;4.73;;;2.73;;
1320;SDS011;653;51.480;11.992;2023-04-04T11:24:11;3.30;;;3.10;;
1320;SDS011;653;51.480;11.992;2023-04-04T11:26:40;5.10;;;3.10;;
1320;SDS011;653;51.480;11.992;2023-04-04T11:29:08;3.50;;;3.20;;
1320;SDS011;653;51.480;11.992;2023-04-04T11:31:44;4.33;;;3.33;;
1320;SDS011;653;51.480;11.992;2023-04-04T11:34:14;3.30;;;3.10;;
1320;SDS011;653;51.480;11.992;2023-04-04T11:36:55;6.73;;;3.10;;
1320;SDS011;653;51.480;11.992;2023-04-04T11:39:29;4.93;;;3.70;;
1320;SDS011;653;51.480;11.992;2023-04-04T11:42:13;4.57;;;3.33;;
1320;SDS011;653;51.480;11.992;2023-04-04T11:44:40;3.50;;;2.47;;
1320;SDS011;653;51.480;11.992;2023-04-04T11:47:27;3.73;;;3.37;;
1320;SDS011;653;51.480;11.992;2023-04-04T11:49:54;3.93;;;3.00;;
1320;SDS011;653;51.480;11.992;2023-04-04T11:52:21;3.43;;;2.73;;
1320;SDS011;653;51.480;11.992;2023-04-04T11:54:50;5.70;;;3.47;;
1320;SDS011;653;51.480;11.992;2023-04-04T11:57:19;4.57;;;3.50;;
1320;SDS011;653;51.480;11.992;2023-04-04T11:59:47;3.40;;;3.10;;
1320;SDS011;653;51.480;11.992;2023-04-04T12:02:24;4.27;;;3.30;;
1320;SDS011;653;51.480;11.992;2023-04-04T12:04:59;3.07;;;2.87;;
1320;SDS011;653;51.480;11.992;2023-04-04T12:07:27;5.00;;;3.43;;
1320;SDS011;653;51.480;11.992;2023-04-04T12:09:54;2.77;;;2.57;;
1320;SDS011;653;51.480;11.992;2023-04-04T12:12:21;3.50;;;3.13;;
1320;SDS011;653;51.480;11.992;2023-04-04T12:14:47;3.63;;;3.17;;
1320;SDS011;653;51.480;11.992;2023-04-04T12:17:15;3.20;;;2.90;;
1320;SDS011;653;51.480;11.992;2023-04-04T12:19:42;5.13;;;3.17;;
1320;SDS011;653;51.480;11.992;2023-04-04T12:22:09;3.90;;;3.60;;
1320;SDS011;653;51.480;11.992;2023-04-04T12:24:35;3.37;;;3.00;;
1320;SDS011;653;51.480;11.992;2023-04-04T12:27:03;3.90;;;3.60;;
1320;SDS011;653;51.480;11.992;2023-04-04T12:29:30;8.50;;;3.70;;
1320;SDS011;653;51.480;11.992;2023-04-04T12:32:00;3.80;;;3.40;;
1320;SDS011;653;51.480;11.992;2023-04-04T12:34:30;3.33;;;3.13;;
1320;SDS011;653;51.480;11.992;2023-04-04T12:36:57;6.60;;;3.87;;
1320;SDS011;653;51.480;11.992;2023-04-04T12:39:28;4.50;;;3.50;;
1320;SDS011;653;51.480;11.992;2023-04-04T12:42:00;5.33;;;3.17;;
1320;SDS011;653;51.480;11.992;2023-04-04T12:44:37;2.93;;;2.73;;
1320;SDS011;653;51.480;11.992;2023-04-04T12:47:08;3.20;;;2.53;;
1320;SDS011;653;51.480;11.992;2023-04-04T12:49:38;3.50;;;3.17;;
1320;SDS011;653;51.480;11.992;2023-04-04T12:52:29;3.27;;;3.07;;
1320;SDS011;653;51.480;11.992;2023-04-04T12:55:15;3.10;;;2.77;;
1320;SDS011;653;51.480;11.992;2023-04-04T12:57:47;2.80;;;2.60;;
1320;SDS011;653;51.480;11.992;2023-04-04T13:00:14;3.47;;;3.17;;
1320;SDS011;653;51.480;11.992;2023-04-04T13:02:47;3.93;;;2.90;;
1320;SDS011;653;51.480;11.992;2023-04-04T13:05:14;3.50;;;3.00;;
1320;SDS011;653;51.480;11.992;2023-04-04T13:07:43;3.27;;;3.00;;
1320;SDS011;653;51.480;11.992;2023-04-04T13:10:11;6.90;;;3.73;;
1320;SDS011;653;51.480;11.992;2023-04-04T13:13:00;2.67;;;2.47;;
1320;SDS011;653;51.480;11.992;2023-04-04T13:18:17;5.80;;;3.70;;
1320;SDS011;653;51.480;11.992;2023-04-04T13:20:47;3.73;;;2.93;;
1320;SDS011;653;51.480;11.992;2023-04-04T13:23:14;6.27;;;2.93;;
1320;SDS011;653;51.480;11.992;2023-04-04T13:25:41;3.20;;;2.90;;
1320;SDS011;653;51.480;11.992;2023-04-04T13:28:07;5.93;;;3.17;;
1320;SDS011;653;51.480;11.992;2023-04-04T13:30:33;3.60;;;2.80;;
1320;SDS011;653;51.480;11.992;2023-04-04T13:32:59;5.23;;;2.80;;
1320;SDS011;653;51.480;11.992;2023-04-04T13:35:26;3.70;;;3.40;;
1320;SDS011;653;51.480;11.992;2023-04-04T13:37:53;6.47;;;3.43;;
1320;SDS011;653;51.480;11.992;2023-04-04T13:40:20;3.40;;;2.87;;
1320;SDS011;653;51.480;11.992;2023-04-04T13:42:47;2.87;;;2.67;;
1320;SDS011;653;51.480;11.992;2023-04-04T13:45:12;3.03;;;2.80;;
1320;SDS011;653;51.480;11.992;2023-04-04T13:47:39;8.20;;;3.77;;
1320;SDS011;653;51.480;11.992;2023-04-04T13:50:06;7.53;;;3.00;;
1320;SDS011;653;51.480;11.992;2023-04-04T13:52:32;4.17;;;3.43;;
1320;SDS011;653;51.480;11.992;2023-04-04T13:55:03;3.60;;;3.30;;
1320;SDS011;653;51.480;11.992;2023-04-04T13:57:31;6.00;;;3.37;;
1320;SDS011;653;51.480;11.992;2023-04-04T13:59:58;5.83;;;3.40;;
1320;SDS011;653;51.480;11.992;2023-04-04T14:02:23;3.20;;;3.00;;
1320;SDS011;653;51.480;11.992;2023-04-04T14:04:52;3.17;;;2.97;;
1320;SDS011;653;51.480;11.992;2023-04-04T14:07:19;3.37;;;2.77;;
1320;SDS011;653;51.480;11.992;2023-04-04T14:09:46;4.73;;;3.13;;
1320;SDS011;653;51.480;11.992;2023-04-04T14:12:13;3.30;;;3.00;;
1320;SDS011;653;51.480;11.992;2023-04-04T14:14:39;3.63;;;3.00;;
1320;SDS011;653;51.480;11.992;2023-04-04T14:17:06;3.47;;;3.17;;
1320;SDS011;653;51.480;11.992;2023-04-04T14:19:48;5.07;;;4.13;;
1320;SDS011;653;51.480;11.992;2023-04-04T14:22:14;4.30;;;3.17;;
1320;SDS011;653;51.480;11.992;2023-04-04T14:24:42;3.67;;;3.27;;
1320;SDS011;653;51.480;11.992;2023-04-04T14:27:13;4.00;;;3.20;;
1320;SDS011;653;51.480;11.992;2023-04-04T14:29:38;3.67;;;3.30;;
1320;SDS011;653;51.480;11.992;2023-04-04T14:32:04;3.77;;;3.43;;
1320;SDS011;653;51.480;11.992;2023-04-04T14:34:29;2.97;;;2.77;;
1320;SDS011;653;51.480;11.992;2023-04-04T14:36:56;4.63;;;3.13;;
1320;SDS011;653;51.480;11.992;2023-04-04T14:39:21;3.13;;;2.87;;
1320;SDS011;653;51.480;11.992;2023-04-04T14:41:47;3.00;;;2.57;;
1320;SDS011;653;51.480;11.992;2023-04-04T14:44:14;3.40;;;2.87;;
1320;SDS011;653;51.480;11.992;2023-04-04T14:46:42;3.23;;;2.80;;
1320;SDS011;653;51.480;11.992;2023-04-04T14:49:09;3.47;;;2.90;;
1320;SDS011;653;51.480;11.992;2023-04-04T14:51:36;4.03;;;3.07;;
1320;SDS011;653;51.480;11.992;2023-04-04T14:54:03;4.10;;;3.30;;
1320;SDS011;653;51.480;11.992;2023-04-04T14:56:31;4.20;;;3.10;;
1320;SDS011;653;51.480;11.992;2023-04-04T14:58:58;5.23;;;3.30;;
1320;SDS011;653;51.480;11.992;2023-04-04T15:01:26;3.17;;;2.87;;
1320;SDS011;653;51.480;11.992;2023-04-04T15:03:52;3.67;;;3.30;;
1320;SDS011;653;51.480;11.992;2023-04-04T15:06:20;3.63;;;3.27;;
1320;SDS011;653;51.480;11.992;2023-04-04T15:08:45;3.00;;;2.73;;
1320;SDS011;653;51.480;11.992;2023-04-04T15:11:12;6.97;;;3.40;;
1320;SDS011;653;51.480;11.992;2023-04-04T15:13:42;3.40;;;3.03;;
1320;SDS011;653;51.480;11.992;2023-04-04T15:16:10;4.00;;;2.93;;
1320;SDS011;653;51.480;11.992;2023-04-04T15:18:39;3.30;;;2.63;;
1320;SDS011;653;51.480;11.992;2023-04-04T15:21:06;3.90;;;2.97;;
1320;SDS011;653;51.480;11.992;2023-04-04T15:23:32;3.20;;;2.90;;
1320;SDS011;653;51.480;11.992;2023-04-04T15:25:59;4.33;;;3.03;;
1320;SDS011;653;51.480;11.992;2023-04-04T15:28:26;3.47;;;3.17;;
1320;SDS011;653;51.480;11.992;2023-04-04T15:30:54;3.03;;;2.83;;
1320;SDS011;653;51.480;11.992;2023-04-04T15:33:22;3.17;;;2.87;;
1320;SDS011;653;51.480;11.992;2023-04-04T15:35:48;4.93;;;3.00;;
1320;SDS011;653;51.480;11.992;2023-04-04T15:38:15;11.20;;;6.87;;
1320;SDS011;653;51.480;11.992;2023-04-04T15:40:41;17.53;;;11.33;;